sensor_id;sensor_type;location;lat;lon;timestamp;P1;durP1;ratioP1;P2;durP2;ratioP2
76761;SDS011;65705;51.032;13.790;2023-09-19T00:00:30;9.15;;;5.28;;
76761;SDS011;65705;51.032;13.790;2023-09-19T00:02:57;11.98;;;4.97;;
76761;SDS011;65705;51.032;13.790;2023-09-19T00:05:26;8.75;;;4.95;;
76761;SDS011;65705;51.032;13.790;2023-09-19T00:07:55;10.63;;;5.43;;
76761;SDS011;65705;51.032;13.790;2023-09-19T00:10:24;8.48;;;5.50;;
76761;SDS011;65705;51.032;13.790;2023-09-19T00:12:53;8.45;;;5.40;;
76761;SDS011;65705;51.032;13.790;2023-09-19T00:15:22;12.38;;;5.65;;
76761;SDS011;65705;51.032;13.790;2023-09-19T00:17:48;9.85;;;5.68;;
76761;SDS011;65705;51.032;13.790;2023-09-19T00:20:14;9.00;;;5.38;;
76761;SDS011;65705;51.032;13.790;2023-09-19T00:22:44;11.15;;;5.38;;
76761;SDS011;65705;51.032;13.790;2023-09-19T00:25:10;8.50;;;5.70;;
76761;SDS011;65705;51.032;13.790;2023-09-19T00:27:40;9.35;;;5.43;;
76761;SDS011;65705;51.032;13.790;2023-09-19T00:30:08;8.45;;;5.78;;
76761;SDS011;65705;51.032;13.790;2023-09-19T00:32:40;10.30;;;5.25;;
76761;SDS011;65705;51.032;13.790;2023-09-19T00:35:06;8.88;;;5.53;;
76761;SDS011;65705;51.032;13.790;2023-09-19T00:37:36;11.23;;;5.90;;
76761;SDS011;65705;51.032;13.790;2023-09-19T00:40:03;9.20;;;5.95;;
76761;SDS011;65705;51.032;13.790;2023-09-19T00:42:31;9.98;;;5.70;;
76761;SDS011;65705;51.032;13.790;2023-09-19T00:44:57;9.25;;;6.28;;
76761;SDS011;65705;51.032;13.790;2023-09-19T00:47:22;9.00;;;5.97;;
76761;SDS011;65705;51.032;13.790;2023-09-19T00:49:48;10.05;;;5.53;;
76761;SDS011;65705;51.032;13.790;2023-09-19T00:52:18;12.32;;;5.60;;
76761;SDS011;65705;51.032;13.790;2023-09-19T00:54:49;10.50;;;6.28;;
76761;SDS011;65705;51.032;13.790;2023-09-19T00:57:15;9.63;;;5.90;;
76761;SDS011;65705;51.032;13.790;2023-09-19T00:59:42;11.18;;;5.63;;
76761;SDS011;65705;51.032;13.790;2023-09-19T01:02:09;8.43;;;5.65;;
76761;SDS011;65705;51.032;13.790;2023-09-19T01:04:36;10.23;;;5.88;;
76761;SDS011;65705;51.032;13.790;2023-09-19T01:07:02;9.77;;;5.93;;
76761;SDS011;65705;51.032;13.790;2023-09-19T01:09:29;9.55;;;5.82;;
76761;SDS011;65705;51.032;13.790;2023-09-19T01:11:58;8.05;;;5.32;;
76761;SDS011;65705;51.032;13.790;2023-09-19T01:17:09;10.43;;;5.60;;
76761;SDS011;65705;51.032;13.790;2023-09-19T01:22:14;9.25;;;6.03;;
76761;SDS011;65705;51.032;13.790;2023-09-19T01:30:51;8.98;;;5.45;;
76761;SDS011;65705;51.032;13.790;2023-09-19T01:33:24;7.88;;;5.28;;
76761;SDS011;65705;51.032;13.790;2023-09-19T01:35:51;8.02;;;5.00;;
76761;SDS011;65705;51.032;13.790;2023-09-19T01:38:19;8.45;;;5.43;;
76761;SDS011;65705;51.032;13.790;2023-09-19T01:40:48;10.10;;;5.50;;
76761;SDS011;65705;51.032;13.790;2023-09-19T01:43:40;9.02;;;4.95;;
76761;SDS011;65705;51.032;13.790;2023-09-19T01:46:22;12.45;;;5.47;;
76761;SDS011;65705;51.032;13.790;2023-09-19T01:51:20;7.95;;;4.53;;
76761;SDS011;65705;51.032;13.790;2023-09-19T01:56:50;12.00;;;5.05;;
76761;SDS011;65705;51.032;13.790;2023-09-19T01:59:28;8.88;;;5.00;;
76761;SDS011;65705;51.032;13.790;2023-09-19T02:02:01;9.18;;;5.13;;
76761;SDS011;65705;51.032;13.790;2023-09-19T02:04:28;9.20;;;4.45;;
76761;SDS011;65705;51.032;13.790;2023-09-19T02:06:56;8.43;;;4.65;;
76761;SDS011;65705;51.032;13.790;2023-09-19T02:09:24;9.60;;;5.20;;
76761;SDS011;65705;51.032;13.790;2023-09-19T02:11:50;8.55;;;4.47;;
76761;SDS011;65705;51.032;13.790;2023-09-19T02:14:16;9.02;;;4.75;;
76761;SDS011;65705;51.032;13.790;2023-09-19T02:16:42;6.93;;;4.60;;
76761;SDS011;65705;51.032;13.790;2023-09-19T02:19:07;8.98;;;5.13;;
76761;SDS011;65705;51.032;13.790;2023-09-19T02:21:33;7.13;;;4.15;;
76761;SDS011;65705;51.032;13.790;2023-09-19T02:23:59;10.38;;;4.45;;
76761;SDS011;65705;51.032;13.790;2023-09-19T02:26:25;9.90;;;4.53;;
76761;SDS011;65705;51.032;13.790;2023-09-19T02:28:52;7.70;;;4.25;;
76761;SDS011;65705;51.032;13.790;2023-09-19T02:31:18;7.72;;;4.72;;
76761;SDS011;65705;51.032;13.790;2023-09-19T02:33:45;10.57;;;4.18;;
76761;SDS011;65705;51.032;13.790;2023-09-19T02:36:11;7.47;;;4.38;;
76761;SDS011;65705;51.032;13.790;2023-09-19T02:38:38;8.05;;;4.30;;
76761;SDS011;65705;51.032;13.790;2023-09-19T02:41:03;8.38;;;4.28;;
76761;SDS011;65705;51.032;13.790;2023-09-19T02:43:29;7.68;;;4.70;;
76761;SDS011;65705;51.032;13.790;2023-09-19T02:45:55;7.20;;;4.13;;
76761;SDS011;65705;51.032;13.790;2023-09-19T02:48:22;7.47;;;4.28;;
76761;SDS011;65705;51.032;13.790;2023-09-19T02:50:51;7.95;;;3.92;;
76761;SDS011;65705;51.032;13.790;2023-09-19T02:53:17;7.22;;;3.92;;
76761;SDS011;65705;51.032;13.790;2023-09-19T02:55:44;9.45;;;4.05;;
76761;SDS011;65705;51.032;13.790;2023-09-19T02:58:10;7.57;;;3.40;;
76761;SDS011;65705;51.032;13.790;2023-09-19T03:00:37;7.20;;;4.03;;
76761;SDS011;65705;51.032;13.790;2023-09-19T03:03:04;9.43;;;4.03;;
76761;SDS011;65705;51.032;13.790;2023-09-19T03:05:32;6.97;;;3.72;;
76761;SDS011;65705;51.032;13.790;2023-09-19T03:07:58;8.27;;;3.50;;
76761;SDS011;65705;51.032;13.790;2023-09-19T03:10:26;6.88;;;3.65;;
76761;SDS011;65705;51.032;13.790;2023-09-19T03:12:53;7.35;;;3.78;;
76761;SDS011;65705;51.032;13.790;2023-09-19T03:15:19;6.15;;;3.58;;
76761;SDS011;65705;51.032;13.790;2023-09-19T03:17:48;9.30;;;4.13;;
76761;SDS011;65705;51.032;13.790;2023-09-19T03:20:18;7.65;;;3.40;;
76761;SDS011;65705;51.032;13.790;2023-09-19T03:22:47;7.78;;;3.80;;
76761;SDS011;65705;51.032;13.790;2023-09-19T03:25:15;7.10;;;3.80;;
76761;SDS011;65705;51.032;13.790;2023-09-19T03:27:45;7.07;;;3.67;;
76761;SDS011;65705;51.032;13.790;2023-09-19T03:30:13;7.05;;;3.08;;
76761;SDS011;65705;51.032;13.790;2023-09-19T03:32:44;8.25;;;3.10;;
76761;SDS011;65705;51.032;13.790;2023-09-19T03:35:11;5.43;;;2.55;;
76761;SDS011;65705;51.032;13.790;2023-09-19T03:37:40;7.20;;;3.13;;
76761;SDS011;65705;51.032;13.790;2023-09-19T03:40:08;4.78;;;2.53;;
76761;SDS011;65705;51.032;13.790;2023-09-19T03:42:41;5.07;;;1.75;;
76761;SDS011;65705;51.032;13.790;2023-09-19T03:45:10;5.43;;;2.50;;
76761;SDS011;65705;51.032;13.790;2023-09-19T03:47:39;5.63;;;2.10;;
76761;SDS011;65705;51.032;13.790;2023-09-19T03:50:06;3.53;;;1.77;;
76761;SDS011;65705;51.032;13.790;2023-09-19T03:52:34;2.42;;;1.42;;
76761;SDS011;65705;51.032;13.790;2023-09-19T03:55:00;5.10;;;2.13;;
76761;SDS011;65705;51.032;13.790;2023-09-19T03:57:28;8.25;;;2.53;;
76761;SDS011;65705;51.032;13.790;2023-09-19T03:59:54;5.55;;;2.08;;
76761;SDS011;65705;51.032;13.790;2023-09-19T04:02:21;3.83;;;1.50;;
76761;SDS011;65705;51.032;13.790;2023-09-19T04:04:51;2.58;;;1.40;;
76761;SDS011;65705;51.032;13.790;2023-09-19T04:07:17;6.90;;;1.90;;
76761;SDS011;65705;51.032;13.790;2023-09-19T04:09:48;2.90;;;1.60;;
76761;SDS011;65705;51.032;13.790;2023-09-19T04:12:14;5.03;;;1.48;;
76761;SDS011;65705;51.032;13.790;2023-09-19T04:14:42;4.05;;;1.48;;
76761;SDS011;65705;51.032;13.790;2023-09-19T04:17:09;2.47;;;1.27;;
76761;SDS011;65705;51.032;13.790;2023-09-19T04:19:35;4.07;;;1.60;;
76761;SDS011;65705;51.032;13.790;2023-09-19T04:22:01;2.95;;;1.60;;
76761;SDS011;65705;51.032;13.790;2023-09-19T04:24:28;6.15;;;1.83;;
76761;SDS011;65705;51.032;13.790;2023-09-19T04:26:54;3.60;;;1.60;;
76761;SDS011;65705;51.032;13.790;2023-09-19T04:29:19;3.60;;;0.93;;
76761;SDS011;65705;51.032;13.790;2023-09-19T04:31:45;1.90;;;1.08;;
76761;SDS011;65705;51.032;13.790;2023-09-19T04:34:11;3.10;;;1.20;;
76761;SDS011;65705;51.032;13.790;2023-09-19T04:36:41;7.45;;;1.40;;
76761;SDS011;65705;51.032;13.790;2023-09-19T04:39:07;3.60;;;1.08;;
76761;SDS011;65705;51.032;13.790;2023-09-19T04:41:33;2.95;;;0.95;;
76761;SDS011;65705;51.032;13.790;2023-09-19T04:43:59;4.45;;;1.02;;
76761;SDS011;65705;51.032;13.790;2023-09-19T04:46:25;2.20;;;0.90;;
76761;SDS011;65705;51.032;13.790;2023-09-19T04:48:52;5.32;;;1.10;;
76761;SDS011;65705;51.032;13.790;2023-09-19T04:51:18;6.82;;;1.20;;
76761;SDS011;65705;51.032;13.790;2023-09-19T04:53:45;3.45;;;0.88;;
76761;SDS011;65705;51.032;13.790;2023-09-19T04:56:11;1.52;;;0.70;;
76761;SDS011;65705;51.032;13.790;2023-09-19T04:58:38;3.22;;;1.00;;
76761;SDS011;65705;51.032;13.790;2023-09-19T05:01:04;3.25;;;1.10;;
76761;SDS011;65705;51.032;13.790;2023-09-19T05:03:30;3.40;;;1.48;;
76761;SDS011;65705;51.032;13.790;2023-09-19T05:05:56;4.20;;;1.20;;
76761;SDS011;65705;51.032;13.790;2023-09-19T05:08:22;1.77;;;0.90;;
76761;SDS011;65705;51.032;13.790;2023-09-19T05:10:48;4.65;;;1.02;;
76761;SDS011;65705;51.032;13.790;2023-09-19T05:13:14;4.25;;;1.00;;
76761;SDS011;65705;51.032;13.790;2023-09-19T05:15:40;3.28;;;1.25;;
76761;SDS011;65705;51.032;13.790;2023-09-19T05:18:06;2.63;;;1.10;;
76761;SDS011;65705;51.032;13.790;2023-09-19T05:20:32;2.38;;;0.95;;
76761;SDS011;65705;51.032;13.790;2023-09-19T05:23:02;2.67;;;1.02;;
76761;SDS011;65705;51.032;13.790;2023-09-19T05:25:31;7.00;;;1.13;;
76761;SDS011;65705;51.032;13.790;2023-09-19T05:28:00;6.45;;;2.10;;
76761;SDS011;65705;51.032;13.790;2023-09-19T05:30:29;3.13;;;1.13;;
76761;SDS011;65705;51.032;13.790;2023-09-19T05:32:55;3.25;;;1.33;;
76761;SDS011;65705;51.032;13.790;2023-09-19T05:35:22;6.25;;;1.10;;
76761;SDS011;65705;51.032;13.790;2023-09-19T05:37:53;2.67;;;1.05;;
76761;SDS011;65705;51.032;13.790;2023-09-19T05:40:20;2.83;;;0.93;;
76761;SDS011;65705;51.032;13.790;2023-09-19T05:42:46;3.85;;;1.08;;
76761;SDS011;65705;51.032;13.790;2023-09-19T05:45:13;5.63;;;1.20;;
76761;SDS011;65705;51.032;13.790;2023-09-19T05:47:39;2.75;;;1.00;;
76761;SDS011;65705;51.032;13.790;2023-09-19T05:50:09;4.57;;;1.20;;
76761;SDS011;65705;51.032;13.790;2023-09-19T05:52:35;5.43;;;1.60;;
76761;SDS011;65705;51.032;13.790;2023-09-19T05:55:05;1.92;;;1.00;;
76761;SDS011;65705;51.032;13.790;2023-09-19T05:57:35;3.40;;;1.10;;
76761;SDS011;65705;51.032;13.790;2023-09-19T06:00:05;1.80;;;0.70;;
76761;SDS011;65705;51.032;13.790;2023-09-19T06:02:37;3.67;;;0.95;;
76761;SDS011;65705;51.032;13.790;2023-09-19T06:05:06;1.73;;;0.80;;
76761;SDS011;65705;51.032;13.790;2023-09-19T06:07:36;2.90;;;0.82;;
76761;SDS011;65705;51.032;13.790;2023-09-19T06:10:03;3.58;;;1.23;;
76761;SDS011;65705;51.032;13.790;2023-09-19T06:12:31;3.17;;;1.10;;
76761;SDS011;65705;51.032;13.790;2023-09-19T06:15:00;4.28;;;0.98;;
76761;SDS011;65705;51.032;13.790;2023-09-19T06:17:26;2.30;;;1.13;;
76761;SDS011;65705;51.032;13.790;2023-09-19T06:19:52;3.80;;;1.23;;
76761;SDS011;65705;51.032;13.790;2023-09-19T06:22:18;4.65;;;1.13;;
76761;SDS011;65705;51.032;13.790;2023-09-19T06:24:45;5.70;;;0.73;;
76761;SDS011;65705;51.032;13.790;2023-09-19T06:27:12;3.28;;;0.90;;
76761;SDS011;65705;51.032;13.790;2023-09-19T06:29:39;3.83;;;1.10;;
76761;SDS011;65705;51.032;13.790;2023-09-19T06:32:08;2.58;;;1.00;;
76761;SDS011;65705;51.032;13.790;2023-09-19T06:34:37;3.75;;;1.20;;
76761;SDS011;65705;51.032;13.790;2023-09-19T06:37:04;2.88;;;0.93;;
76761;SDS011;65705;51.032;13.790;2023-09-19T06:39:31;3.17;;;1.20;;
76761;SDS011;65705;51.032;13.790;2023-09-19T06:41:57;4.30;;;1.50;;
76761;SDS011;65705;51.032;13.790;2023-09-19T06:44:24;4.13;;;1.08;;
76761;SDS011;65705;51.032;13.790;2023-09-19T06:46:50;3.53;;;1.50;;
76761;SDS011;65705;51.032;13.790;2023-09-19T06:49:19;3.83;;;1.77;;
76761;SDS011;65705;51.032;13.790;2023-09-19T06:51:45;3.20;;;0.90;;
76761;SDS011;65705;51.032;13.790;2023-09-19T06:54:10;4.22;;;0.80;;
76761;SDS011;65705;51.032;13.790;2023-09-19T06:56:37;3.83;;;0.85;;
76761;SDS011;65705;51.032;13.790;2023-09-19T06:59:03;4.55;;;0.90;;
76761;SDS011;65705;51.032;13.790;2023-09-19T07:01:31;2.00;;;0.80;;
76761;SDS011;65705;51.032;13.790;2023-09-19T07:03:57;1.38;;;0.70;;
76761;SDS011;65705;51.032;13.790;2023-09-19T07:06:23;2.60;;;1.05;;
76761;SDS011;65705;51.032;13.790;2023-09-19T07:08:49;3.28;;;1.00;;
76761;SDS011;65705;51.032;13.790;2023-09-19T07:11:15;5.75;;;1.27;;
76761;SDS011;65705;51.032;13.790;2023-09-19T07:13:42;1.73;;;0.75;;
76761;SDS011;65705;51.032;13.790;2023-09-19T07:16:08;4.05;;;0.90;;
76761;SDS011;65705;51.032;13.790;2023-09-19T07:18:35;3.50;;;0.98;;
76761;SDS011;65705;51.032;13.790;2023-09-19T07:21:02;4.07;;;0.93;;
76761;SDS011;65705;51.032;13.790;2023-09-19T07:23:30;2.95;;;0.77;;
76761;SDS011;65705;51.032;13.790;2023-09-19T07:26:00;8.50;;;1.00;;
76761;SDS011;65705;51.032;13.790;2023-09-19T07:28:27;2.63;;;1.02;;
76761;SDS011;65705;51.032;13.790;2023-09-19T07:30:53;3.30;;;1.17;;
76761;SDS011;65705;51.032;13.790;2023-09-19T07:33:20;1.70;;;0.93;;
76761;SDS011;65705;51.032;13.790;2023-09-19T07:35:46;3.58;;;0.90;;
76761;SDS011;65705;51.032;13.790;2023-09-19T07:38:15;4.20;;;0.90;;
76761;SDS011;65705;51.032;13.790;2023-09-19T07:40:43;2.00;;;0.60;;
76761;SDS011;65705;51.032;13.790;2023-09-19T07:43:09;1.85;;;0.80;;
76761;SDS011;65705;51.032;13.790;2023-09-19T07:45:35;2.85;;;0.80;;
76761;SDS011;65705;51.032;13.790;2023-09-19T07:48:01;5.18;;;0.90;;
76761;SDS011;65705;51.032;13.790;2023-09-19T07:50:33;2.33;;;0.60;;
76761;SDS011;65705;51.032;13.790;2023-09-19T07:53:02;4.72;;;0.70;;
76761;SDS011;65705;51.032;13.790;2023-09-19T07:55:30;2.75;;;0.70;;
76761;SDS011;65705;51.032;13.790;2023-09-19T07:57:56;3.38;;;1.10;;
76761;SDS011;65705;51.032;13.790;2023-09-19T08:00:23;1.77;;;0.70;;
76761;SDS011;65705;51.032;13.790;2023-09-19T08:02:49;2.40;;;0.82;;
76761;SDS011;65705;51.032;13.790;2023-09-19T08:05:17;2.42;;;0.77;;
76761;SDS011;65705;51.032;13.790;2023-09-19T08:07:44;1.35;;;0.63;;
76761;SDS011;65705;51.032;13.790;2023-09-19T08:10:14;2.05;;;0.55;;
76761;SDS011;65705;51.032;13.790;2023-09-19T08:12:42;1.98;;;0.70;;
76761;SDS011;65705;51.032;13.790;2023-09-19T08:15:15;4.40;;;0.70;;
76761;SDS011;65705;51.032;13.790;2023-09-19T08:17:45;2.40;;;0.70;;
76761;SDS011;65705;51.032;13.790;2023-09-19T08:20:12;1.38;;;0.63;;
76761;SDS011;65705;51.032;13.790;2023-09-19T08:22:48;2.38;;;0.80;;
76761;SDS011;65705;51.032;13.790;2023-09-19T08:25:18;1.30;;;0.65;;
76761;SDS011;65705;51.032;13.790;2023-09-19T08:27:47;2.70;;;1.00;;
76761;SDS011;65705;51.032;13.790;2023-09-19T08:30:15;1.70;;;0.47;;
76761;SDS011;65705;51.032;13.790;2023-09-19T08:32:41;2.22;;;0.70;;
76761;SDS011;65705;51.032;13.790;2023-09-19T08:37:40;0.90;;;0.50;;
76761;SDS011;65705;51.032;13.790;2023-09-19T08:40:06;4.35;;;0.80;;
76761;SDS011;65705;51.032;13.790;2023-09-19T08:42:50;2.10;;;0.63;;
76761;SDS011;65705;51.032;13.790;2023-09-19T08:45:17;1.88;;;0.63;;
76761;SDS011;65705;51.032;13.790;2023-09-19T08:47:47;1.80;;;0.50;;
76761;SDS011;65705;51.032;13.790;2023-09-19T08:50:27;3.83;;;0.70;;
76761;SDS011;65705;51.032;13.790;2023-09-19T08:53:00;2.25;;;0.57;;
76761;SDS011;65705;51.032;13.790;2023-09-19T08:55:27;2.92;;;0.60;;
76761;SDS011;65705;51.032;13.790;2023-09-19T08:58:28;3.80;;;0.90;;
76761;SDS011;65705;51.032;13.790;2023-09-19T09:00:48;3.10;;;0.80;;
76761;SDS011;65705;51.032;13.790;2023-09-19T09:03:16;2.72;;;0.95;;
76761;SDS011;65705;51.032;13.790;2023-09-19T09:05:45;3.08;;;0.55;;
76761;SDS011;65705;51.032;13.790;2023-09-19T09:08:12;3.70;;;0.82;;
76761;SDS011;65705;51.032;13.790;2023-09-19T09:10:39;2.22;;;0.70;;
76761;SDS011;65705;51.032;13.790;2023-09-19T09:13:06;3.40;;;0.77;;
76761;SDS011;65705;51.032;13.790;2023-09-19T09:15:35;3.40;;;1.10;;
76761;SDS011;65705;51.032;13.790;2023-09-19T09:18:02;1.77;;;0.70;;
76761;SDS011;65705;51.032;13.790;2023-09-19T09:20:30;3.63;;;1.00;;
76761;SDS011;65705;51.032;13.790;2023-09-19T09:22:56;4.63;;;0.90;;
76761;SDS011;65705;51.032;13.790;2023-09-19T09:28:25;2.28;;;0.70;;
76761;SDS011;65705;51.032;13.790;2023-09-19T09:30:54;3.65;;;0.75;;
76761;SDS011;65705;51.032;13.790;2023-09-19T09:33:20;2.03;;;0.60;;
76761;SDS011;65705;51.032;13.790;2023-09-19T09:35:47;3.08;;;0.70;;
76761;SDS011;65705;51.032;13.790;2023-09-19T09:38:21;3.10;;;0.80;;
76761;SDS011;65705;51.032;13.790;2023-09-19T09:40:51;3.05;;;1.00;;
76761;SDS011;65705;51.032;13.790;2023-09-19T09:43:33;4.78;;;0.93;;
76761;SDS011;65705;51.032;13.790;2023-09-19T09:46:14;2.85;;;0.75;;
76761;SDS011;65705;51.032;13.790;2023-09-19T09:48:57;4.55;;;1.00;;
76761;SDS011;65705;51.032;13.790;2023-09-19T09:51:47;2.38;;;0.80;;
76761;SDS011;65705;51.032;13.790;2023-09-19T09:54:25;6.97;;;0.85;;
76761;SDS011;65705;51.032;13.790;2023-09-19T09:57:05;1.52;;;0.50;;
76761;SDS011;65705;51.032;13.790;2023-09-19T09:59:46;4.63;;;0.80;;
76761;SDS011;65705;51.032;13.790;2023-09-19T10:02:16;1.63;;;0.80;;
76761;SDS011;65705;51.032;13.790;2023-09-19T10:04:55;3.33;;;0.70;;
76761;SDS011;65705;51.032;13.790;2023-09-19T10:07:35;3.33;;;0.77;;
76761;SDS011;65705;51.032;13.790;2023-09-19T10:10:06;3.67;;;0.70;;
76761;SDS011;65705;51.032;13.790;2023-09-19T10:12:42;2.85;;;0.70;;
76761;SDS011;65705;51.032;13.790;2023-09-19T10:15:11;3.78;;;0.82;;
76761;SDS011;65705;51.032;13.790;2023-09-19T10:17:44;2.63;;;0.60;;
76761;SDS011;65705;51.032;13.790;2023-09-19T10:20:17;3.92;;;1.10;;
76761;SDS011;65705;51.032;13.790;2023-09-19T10:23:05;3.28;;;0.85;;
76761;SDS011;65705;51.032;13.790;2023-09-19T10:25:42;4.03;;;0.90;;
76761;SDS011;65705;51.032;13.790;2023-09-19T10:28:12;3.35;;;0.88;;
76761;SDS011;65705;51.032;13.790;2023-09-19T10:30:43;1.60;;;0.90;;
76761;SDS011;65705;51.032;13.790;2023-09-19T10:33:11;2.60;;;0.90;;
76761;SDS011;65705;51.032;13.790;2023-09-19T10:35:39;2.15;;;0.60;;
76761;SDS011;65705;51.032;13.790;2023-09-19T10:38:10;2.63;;;0.60;;
76761;SDS011;65705;51.032;13.790;2023-09-19T10:40:39;1.98;;;0.80;;
76761;SDS011;65705;51.032;13.790;2023-09-19T10:45:37;3.30;;;0.63;;
76761;SDS011;65705;51.032;13.790;2023-09-19T10:50:35;2.22;;;0.60;;
76761;SDS011;65705;51.032;13.790;2023-09-19T10:53:07;2.40;;;0.98;;
76761;SDS011;65705;51.032;13.790;2023-09-19T10:55:36;2.63;;;1.00;;
76761;SDS011;65705;51.032;13.790;2023-09-19T10:58:02;3.75;;;0.98;;
76761;SDS011;65705;51.032;13.790;2023-09-19T11:00:53;1.85;;;0.70;;
76761;SDS011;65705;51.032;13.790;2023-09-19T11:03:21;1.48;;;0.80;;
76761;SDS011;65705;51.032;13.790;2023-09-19T11:30:43;3.08;;;1.00;;
76761;SDS011;65705;51.032;13.790;2023-09-19T11:33:17;2.40;;;1.02;;
76761;SDS011;65705;51.032;13.790;2023-09-19T11:49:17;5.03;;;1.38;;
76761;SDS011;65705;51.032;13.790;2023-09-19T11:51:46;4.35;;;1.83;;
76761;SDS011;65705;51.032;13.790;2023-09-19T11:54:15;3.78;;;1.50;;
76761;SDS011;65705;51.032;13.790;2023-09-19T11:56:44;2.50;;;1.20;;
76761;SDS011;65705;51.032;13.790;2023-09-19T11:59:19;3.05;;;1.10;;
76761;SDS011;65705;51.032;13.790;2023-09-19T12:01:50;5.18;;;1.27;;
76761;SDS011;65705;51.032;13.790;2023-09-19T12:04:36;3.88;;;1.33;;
76761;SDS011;65705;51.032;13.790;2023-09-19T12:07:06;1.67;;;0.90;;
76761;SDS011;65705;51.032;13.790;2023-09-19T12:09:46;2.45;;;1.10;;
76761;SDS011;65705;51.032;13.790;2023-09-19T12:12:24;2.22;;;0.88;;
76761;SDS011;65705;51.032;13.790;2023-09-19T12:14:58;2.28;;;0.90;;
76761;SDS011;65705;51.032;13.790;2023-09-19T12:17:37;6.43;;;1.15;;
76761;SDS011;65705;51.032;13.790;2023-09-19T12:20:12;5.40;;;1.05;;
76761;SDS011;65705;51.032;13.790;2023-09-19T12:22:42;3.20;;;1.20;;
76761;SDS011;65705;51.032;13.790;2023-09-19T12:25:09;2.13;;;0.95;;
76761;SDS011;65705;51.032;13.790;2023-09-19T12:27:47;4.07;;;1.15;;
76761;SDS011;65705;51.032;13.790;2023-09-19T12:30:14;2.65;;;0.70;;
76761;SDS011;65705;51.032;13.790;2023-09-19T12:32:43;4.13;;;0.90;;
76761;SDS011;65705;51.032;13.790;2023-09-19T12:35:09;2.95;;;0.90;;
76761;SDS011;65705;51.032;13.790;2023-09-19T12:37:43;3.90;;;1.15;;
76761;SDS011;65705;51.032;13.790;2023-09-19T12:40:13;2.58;;;0.90;;
76761;SDS011;65705;51.032;13.790;2023-09-19T12:42:48;3.20;;;0.73;;
76761;SDS011;65705;51.032;13.790;2023-09-19T12:45:15;2.08;;;0.90;;
76761;SDS011;65705;51.032;13.790;2023-09-19T12:51:10;3.58;;;1.10;;
76761;SDS011;65705;51.032;13.790;2023-09-19T12:53:42;3.97;;;1.13;;
76761;SDS011;65705;51.032;13.790;2023-09-19T12:56:11;2.85;;;0.90;;
76761;SDS011;65705;51.032;13.790;2023-09-19T12:58:50;2.45;;;1.10;;
76761;SDS011;65705;51.032;13.790;2023-09-19T13:01:19;6.03;;;0.90;;
76761;SDS011;65705;51.032;13.790;2023-09-19T13:03:46;4.00;;;0.70;;
76761;SDS011;65705;51.032;13.790;2023-09-19T13:06:35;4.40;;;2.03;;
76761;SDS011;65705;51.032;13.790;2023-09-19T13:09:10;2.90;;;0.88;;
76761;SDS011;65705;51.032;13.790;2023-09-19T13:11:36;3.15;;;0.85;;
76761;SDS011;65705;51.032;13.790;2023-09-19T13:14:21;6.93;;;1.20;;
76761;SDS011;65705;51.032;13.790;2023-09-19T13:17:02;3.08;;;0.80;;
76761;SDS011;65705;51.032;13.790;2023-09-19T13:19:35;4.15;;;0.82;;
76761;SDS011;65705;51.032;13.790;2023-09-19T13:22:03;3.05;;;1.00;;
76761;SDS011;65705;51.032;13.790;2023-09-19T13:24:29;2.70;;;1.00;;
76761;SDS011;65705;51.032;13.790;2023-09-19T13:26:56;2.10;;;0.80;;
76761;SDS011;65705;51.032;13.790;2023-09-19T13:29:22;2.13;;;0.90;;
76761;SDS011;65705;51.032;13.790;2023-09-19T13:31:49;4.65;;;1.80;;
76761;SDS011;65705;51.032;13.790;2023-09-19T13:34:18;3.85;;;1.58;;
76761;SDS011;65705;51.032;13.790;2023-09-19T13:36:45;3.15;;;1.00;;
76761;SDS011;65705;51.032;13.790;2023-09-19T13:39:15;3.00;;;1.30;;
76761;SDS011;65705;51.032;13.790;2023-09-19T13:41:42;2.88;;;0.90;;
76761;SDS011;65705;51.032;13.790;2023-09-19T13:44:10;3.35;;;0.90;;
76761;SDS011;65705;51.032;13.790;2023-09-19T13:46:36;3.17;;;1.15;;
76761;SDS011;65705;51.032;13.790;2023-09-19T13:49:02;3.03;;;1.10;;
76761;SDS011;65705;51.032;13.790;2023-09-19T13:51:31;2.25;;;0.90;;
76761;SDS011;65705;51.032;13.790;2023-09-19T13:53:57;3.20;;;1.50;;
76761;SDS011;65705;51.032;13.790;2023-09-19T13:56:25;3.30;;;0.98;;
76761;SDS011;65705;51.032;13.790;2023-09-19T13:58:53;2.88;;;1.10;;
76761;SDS011;65705;51.032;13.790;2023-09-19T14:01:22;1.80;;;0.90;;
76761;SDS011;65705;51.032;13.790;2023-09-19T14:03:48;4.55;;;1.90;;
76761;SDS011;65705;51.032;13.790;2023-09-19T14:06:16;6.53;;;1.90;;
76761;SDS011;65705;51.032;13.790;2023-09-19T14:08:44;9.98;;;4.57;;
76761;SDS011;65705;51.032;13.790;2023-09-19T14:11:13;5.55;;;1.10;;
76761;SDS011;65705;51.032;13.790;2023-09-19T14:13:39;2.28;;;0.90;;
76761;SDS011;65705;51.032;13.790;2023-09-19T14:16:06;2.10;;;1.00;;
76761;SDS011;65705;51.032;13.790;2023-09-19T14:18:34;3.55;;;1.10;;
76761;SDS011;65705;51.032;13.790;2023-09-19T14:21:06;4.45;;;1.27;;
76761;SDS011;65705;51.032;13.790;2023-09-19T14:23:38;2.05;;;1.00;;
76761;SDS011;65705;51.032;13.790;2023-09-19T14:26:04;3.10;;;1.30;;
76761;SDS011;65705;51.032;13.790;2023-09-19T14:28:34;3.50;;;1.10;;
76761;SDS011;65705;51.032;13.790;2023-09-19T14:31:04;5.57;;;1.00;;
76761;SDS011;65705;51.032;13.790;2023-09-19T14:33:33;5.00;;;2.42;;
76761;SDS011;65705;51.032;13.790;2023-09-19T14:36:01;3.08;;;1.05;;
76761;SDS011;65705;51.032;13.790;2023-09-19T14:38:29;3.78;;;1.42;;
76761;SDS011;65705;51.032;13.790;2023-09-19T14:41:04;3.70;;;1.20;;
76761;SDS011;65705;51.032;13.790;2023-09-19T14:43:31;4.78;;;1.38;;
76761;SDS011;65705;51.032;13.790;2023-09-19T14:46:04;5.45;;;1.35;;
76761;SDS011;65705;51.032;13.790;2023-09-19T14:48:33;8.93;;;4.47;;
76761;SDS011;65705;51.032;13.790;2023-09-19T14:51:03;6.47;;;1.38;;
76761;SDS011;65705;51.032;13.790;2023-09-19T14:53:37;3.30;;;1.20;;
76761;SDS011;65705;51.032;13.790;2023-09-19T14:56:04;2.67;;;1.23;;
76761;SDS011;65705;51.032;13.790;2023-09-19T14:58:31;4.30;;;1.38;;
76761;SDS011;65705;51.032;13.790;2023-09-19T15:01:02;3.60;;;1.35;;
76761;SDS011;65705;51.032;13.790;2023-09-19T15:03:29;4.00;;;1.23;;
76761;SDS011;65705;51.032;13.790;2023-09-19T15:06:03;6.18;;;3.05;;
76761;SDS011;65705;51.032;13.790;2023-09-19T15:08:30;3.42;;;1.33;;
76761;SDS011;65705;51.032;13.790;2023-09-19T15:10:56;6.00;;;1.73;;
76761;SDS011;65705;51.032;13.790;2023-09-19T15:13:24;4.95;;;1.90;;
76761;SDS011;65705;51.032;13.790;2023-09-19T15:16:06;3.72;;;1.42;;
76761;SDS011;65705;51.032;13.790;2023-09-19T15:18:37;3.15;;;1.05;;
76761;SDS011;65705;51.032;13.790;2023-09-19T15:21:04;2.85;;;1.20;;
76761;SDS011;65705;51.032;13.790;2023-09-19T15:23:31;4.65;;;1.45;;
76761;SDS011;65705;51.032;13.790;2023-09-19T15:26:00;6.60;;;2.30;;
76761;SDS011;65705;51.032;13.790;2023-09-19T15:28:27;2.35;;;1.17;;
76761;SDS011;65705;51.032;13.790;2023-09-19T15:30:58;2.78;;;1.15;;
76761;SDS011;65705;51.032;13.790;2023-09-19T15:33:27;5.88;;;1.40;;
76761;SDS011;65705;51.032;13.790;2023-09-19T15:38:32;3.33;;;1.25;;
76761;SDS011;65705;51.032;13.790;2023-09-19T15:41:19;4.63;;;1.50;;
76761;SDS011;65705;51.032;13.790;2023-09-19T15:43:46;3.58;;;1.40;;
76761;SDS011;65705;51.032;13.790;2023-09-19T15:46:12;5.03;;;1.95;;
76761;SDS011;65705;51.032;13.790;2023-09-19T15:48:40;4.43;;;1.30;;
76761;SDS011;65705;51.032;13.790;2023-09-19T15:51:06;3.60;;;1.55;;
76761;SDS011;65705;51.032;13.790;2023-09-19T15:53:41;4.55;;;1.83;;
76761;SDS011;65705;51.032;13.790;2023-09-19T15:56:11;5.00;;;1.98;;